createdAt,value
2023-05-01T00:02:38.222Z,100689.09
2023-05-01T00:05:40.837Z,100676.66
2023-05-01T00:08:43.207Z,100688.22
2023-05-01T00:11:46.428Z,100686.91
2023-05-01T00:14:48.743Z,100682.84
2023-05-01T00:17:51.729Z,100682.69
2023-05-01T00:20:54.073Z,100685.06
2023-05-01T00:23:56.493Z,100672.63
2023-05-01T00:26:59.027Z,100682.78
2023-05-01T00:30:01.841Z,100684.81
2023-05-01T00:33:04.271Z,100684.72
2023-05-01T00:36:06.754Z,100675.28
2023-05-01T00:39:09.124Z,100675.13
2023-05-01T00:42:11.492Z,100669.34
2023-05-01T00:45:14.571Z,100675.34
2023-05-01T00:48:17.272Z,100676.78
2023-05-01T00:51:20.155Z,100669.88
2023-05-01T00:54:23.227Z,100668.97
2023-05-01T00:57:25.618Z,100674.28
2023-05-01T01:00:29.594Z,100680.13
2023-05-01T01:03:32.214Z,100681.16
2023-05-01T01:06:35.997Z,100684.81
2023-05-01T01:09:53.810Z,100689.38
2023-05-01T01:13:16.564Z,100689.97
2023-05-01T01:16:36.579Z,100688.16
2023-05-01T01:20:06.804Z,100694.03
2023-05-01T01:23:33.204Z,100693.75
2023-05-01T01:27:13.116Z,100691.81
2023-05-01T01:30:52.602Z,100689.53
2023-05-01T01:34:02.542Z,100691.97
2023-05-01T01:37:08.818Z,100684.34
2023-05-01T01:40:16.510Z,100673.16
2023-05-01T01:43:18.871Z,100675.50
2023-05-01T01:46:21.299Z,100655.84
2023-05-01T01:49:25.393Z,100669.66
2023-05-01T01:52:27.915Z,100684.50
2023-05-01T01:55:30.480Z,100678.50
2023-05-01T01:58:33.327Z,100675.44
2023-05-01T02:01:35.913Z,100678.84
2023-05-01T02:04:38.343Z,100683.88
2023-05-01T02:07:40.975Z,100664.56
2023-05-01T02:10:43.997Z,100675.50
2023-05-01T02:13:46.371Z,100666.00
2023-05-01T02:16:48.958Z,100671.50
2023-05-01T02:19:53.295Z,100669.59
2023-05-01T02:22:55.858Z,100674.00
2023-05-01T02:25:58.518Z,100675.44
2023-05-01T02:29:00.886Z,100674.81
2023-05-01T02:32:03.794Z,100677.72
2023-05-01T02:35:06.681Z,100672.97
2023-05-01T02:38:09.232Z,100680.44
2023-05-01T02:41:11.618Z,100674.22
2023-05-01T02:44:13.953Z,100693.44
2023-05-01T02:47:18.109Z,100690.50
2023-05-01T02:50:20.487Z,100680.41
2023-05-01T02:53:22.917Z,100691.72
2023-05-01T02:56:29.476Z,100685.22
2023-05-01T02:59:59.879Z,100694.50
2023-05-01T03:03:02.235Z,100684.72
2023-05-01T03:06:05.075Z,100683.22
2023-05-01T03:09:08.227Z,100684.75
2023-05-01T03:12:12.208Z,100685.56
2023-05-01T03:15:14.726Z,100686.19
2023-05-01T03:18:17.677Z,100688.69
2023-05-01T03:21:19.981Z,100677.16
2023-05-01T03:24:22.360Z,100682.16
2023-05-01T03:27:24.723Z,100691.75
2023-05-01T03:30:27.220Z,100687.81
2023-05-01T03:33:31.670Z,100704.25
2023-05-01T03:36:34.084Z,100698.25
2023-05-01T03:39:37.236Z,100680.56
2023-05-01T03:42:57.965Z,100704.97
2023-05-01T03:46:00.380Z,100710.50
2023-05-01T03:49:03.036Z,100706.22
2023-05-01T03:52:10.272Z,100710.88
2023-05-01T03:55:13.019Z,100700.31
2023-05-01T03:58:16.753Z,100699.88
2023-05-01T04:01:19.755Z,100707.13
2023-05-01T04:04:23.251Z,100707.69
2023-05-01T04:07:31.570Z,100701.78
2023-05-01T04:10:33.926Z,100714.84
2023-05-01T04:13:39.964Z,100702.63
2023-05-01T04:16:43.284Z,100704.06
2023-05-01T04:19:47.979Z,100703.88
2023-05-01T04:22:50.438Z,100713.41
2023-05-01T04:25:53.326Z,100713.53
2023-05-01T04:28:55.854Z,100708.00
2023-05-01T04:32:01.023Z,100716.56
2023-05-01T04:35:05.015Z,100718.13
2023-05-01T04:38:08.030Z,100714.63
2023-05-01T04:41:10.497Z,100708.75
2023-05-01T04:44:13.548Z,100729.66
2023-05-01T04:47:16.112Z,100728.25
2023-05-01T04:50:18.447Z,100718.19
2023-05-01T04:53:21.687Z,100726.97
2023-05-01T04:56:25.093Z,100726.03
2023-05-01T04:59:31.496Z,100719.06
2023-05-01T05:02:34.053Z,100731.34
2023-05-01T05:05:36.672Z,100736.63
2023-05-01T05:08:41.036Z,100734.25
2023-05-01T05:11:45.513Z,100731.31
2023-05-01T05:14:55.820Z,100727.97
2023-05-01T05:17:58.350Z,100737.41
2023-05-01T05:21:04.785Z,100737.44
2023-05-01T05:24:07.733Z,100743.66
2023-05-01T05:27:10.111Z,100740.03
2023-05-01T05:30:12.859Z,100742.25
2023-05-01T05:33:15.512Z,100740.06
2023-05-01T05:36:17.998Z,100743.22
2023-05-01T05:39:23.732Z,100741.47
2023-05-01T05:42:26.550Z,100745.66
2023-05-01T05:45:29.447Z,100745.09
2023-05-01T05:48:32.594Z,100733.03
2023-05-01T05:51:34.899Z,100748.88
2023-05-01T05:54:37.724Z,100742.88
2023-05-01T05:57:40.082Z,100731.06
2023-05-01T06:00:43.060Z,100738.72
2023-05-01T06:03:45.588Z,100740.75
2023-05-01T06:06:48.923Z,100729.72
2023-05-01T06:09:51.318Z,100732.13
2023-05-01T06:12:59.633Z,100731.97
2023-05-01T06:16:07.810Z,100731.16
2023-05-01T06:19:12.170Z,100727.75
2023-05-01T06:22:15.542Z,100742.19
2023-05-01T06:25:33.684Z,100743.19
2023-05-01T06:28:36.036Z,100743.63
2023-05-01T06:31:38.922Z,100728.94
2023-05-01T06:34:41.372Z,100756.66
2023-05-01T06:37:43.748Z,100758.47
2023-05-01T06:40:49.114Z,100757.66
2023-05-01T06:43:51.934Z,100756.66
2023-05-01T06:46:54.474Z,100762.06
2023-05-01T06:49:57.040Z,100757.03
2023-05-01T06:53:03.112Z,100745.97
2023-05-01T06:56:06.304Z,100756.00
2023-05-01T06:59:09.053Z,100747.19
2023-05-01T07:02:11.549Z,100759.00
2023-05-01T07:05:14.026Z,100753.94
2023-05-01T07:08:16.458Z,100763.78
2023-05-01T07:11:19.050Z,100758.34
2023-05-01T07:14:21.376Z,100766.75
2023-05-01T07:17:23.801Z,100770.72
2023-05-01T07:20:26.323Z,100775.94
2023-05-01T07:23:29.094Z,100771.56
2023-05-01T07:26:31.545Z,100775.34
2023-05-01T07:29:35.379Z,100781.00
2023-05-01T07:32:38.003Z,100779.94
2023-05-01T07:35:40.361Z,100765.97
2023-05-01T07:38:42.650Z,100741.66
2023-05-01T07:41:45.048Z,100776.28
2023-05-01T07:44:47.460Z,100779.84
2023-05-01T07:47:50.143Z,100783.75
2023-05-01T07:50:52.631Z,100774.03
2023-05-01T07:53:54.958Z,100773.06
2023-05-01T07:56:57.535Z,100781.94
2023-05-01T07:59:59.899Z,100777.19
2023-05-01T08:03:02.602Z,100769.63
2023-05-01T08:06:06.108Z,100771.28
2023-05-01T08:09:08.483Z,100774.13
2023-05-01T08:12:10.924Z,100772.72
2023-05-01T08:15:13.257Z,100770.81
2023-05-01T08:18:20.478Z,100777.75
2023-05-01T08:21:23.150Z,100779.25
2023-05-01T08:24:25.915Z,100775.91
2023-05-01T08:27:28.236Z,100772.03
2023-05-01T08:30:31.725Z,100777.44
2023-05-01T08:33:34.151Z,100783.25
2023-05-01T08:36:36.588Z,100788.31
2023-05-01T08:39:38.945Z,100782.56
2023-05-01T08:42:41.364Z,100788.66
2023-05-01T08:45:43.689Z,100781.53
2023-05-01T08:48:46.137Z,100773.25
2023-05-01T08:51:48.606Z,100770.53
2023-05-01T08:54:51.051Z,100772.69
2023-05-01T08:57:53.430Z,100772.25
2023-05-01T09:00:56.756Z,100774.38
2023-05-01T09:03:59.441Z,100774.28
2023-05-01T09:07:02.175Z,100767.53
2023-05-01T09:10:04.879Z,100767.22
2023-05-01T09:13:08.384Z,100770.31
2023-05-01T09:16:11.171Z,100769.25
2023-05-01T09:19:13.570Z,100765.94
2023-05-01T09:22:16.219Z,100759.19
2023-05-01T09:25:19.473Z,100765.09
2023-05-01T09:28:41.668Z,100761.91
2023-05-01T09:31:44.068Z,100764.22
2023-05-01T09:34:49.510Z,100750.03
2023-05-01T09:37:52.073Z,100756.84
2023-05-01T09:40:56.630Z,100759.56
2023-05-01T09:43:59.351Z,100750.34
2023-05-01T09:47:01.724Z,100745.91
2023-05-01T09:50:04.584Z,100751.00
2023-05-01T09:53:07.132Z,100741.69
2023-05-01T09:56:09.604Z,100722.00
2023-05-01T09:59:16.596Z,100737.72
2023-05-01T10:02:29.761Z,100724.22
2023-05-01T10:05:43.225Z,100738.59
2023-05-01T10:08:48.975Z,100730.94
2023-05-01T10:11:53.709Z,100728.50
2023-05-01T10:14:57.789Z,100719.03
2023-05-01T10:18:00.180Z,100727.31
2023-05-01T10:21:03.905Z,100717.06
2023-05-01T10:24:07.417Z,100721.00
2023-05-01T10:27:10.453Z,100729.56
2023-05-01T10:30:12.961Z,100722.34
2023-05-01T10:33:15.476Z,100715.25
2023-05-01T10:36:38.152Z,100701.34
2023-05-01T10:39:40.720Z,100702.50
2023-05-01T10:43:28.741Z,100707.63
2023-05-01T10:46:31.311Z,100698.75
2023-05-01T10:50:08.843Z,100694.78
2023-05-01T10:53:14.772Z,100697.72
2023-05-01T10:56:26.992Z,100687.94
2023-05-01T11:00:01.905Z,100675.72
2023-05-01T11:03:22.290Z,100683.94
2023-05-01T11:06:25.327Z,100682.50
2023-05-01T11:09:44.223Z,100685.88
2023-05-01T11:12:46.574Z,100680.00
2023-05-01T11:15:49.081Z,100657.75
2023-05-01T11:18:51.502Z,100669.84
2023-05-01T11:21:54.377Z,100674.31
2023-05-01T11:24:57.179Z,100659.75
2023-05-01T11:28:01.911Z,100659.88
2023-05-01T11:31:04.272Z,100657.88
2023-05-01T11:34:09.353Z,100661.25
2023-05-01T11:37:11.672Z,100651.66
2023-05-01T11:40:40.518Z,100650.47
2023-05-01T11:43:57.516Z,100657.53
2023-05-01T11:47:01.324Z,100647.81
2023-05-01T11:50:03.851Z,100645.00
2023-05-01T11:53:15.722Z,100643.94
2023-05-01T11:56:26.597Z,100639.44
2023-05-01T11:59:30.678Z,100642.81
2023-05-01T12:02:33.434Z,100635.25
2023-05-01T12:05:37.422Z,100620.44
2023-05-01T12:08:48.708Z,100624.44
2023-05-01T12:11:52.813Z,100625.41
2023-05-01T12:14:55.980Z,100617.75
2023-05-01T12:17:59.020Z,100612.25
2023-05-01T12:21:01.360Z,100598.69
2023-05-01T12:24:16.525Z,100603.53
2023-05-01T12:27:19.853Z,100598.88
2023-05-01T12:30:26.919Z,100590.09
2023-05-01T12:33:30.168Z,100578.09
2023-05-01T12:36:33.891Z,100588.34
2023-05-01T12:39:40.312Z,100584.13
2023-05-01T12:42:42.675Z,100570.72
2023-05-01T12:45:45.024Z,100563.31
2023-05-01T12:48:49.285Z,100569.69
2023-05-01T12:51:55.833Z,100560.28
2023-05-01T12:55:05.484Z,100544.59
2023-05-01T12:58:07.812Z,100557.09
2023-05-01T13:01:10.247Z,100544.06
2023-05-01T13:04:12.596Z,100547.03
2023-05-01T13:07:16.550Z,100538.00
2023-05-01T13:10:29.596Z,100540.28
2023-05-01T13:13:34.427Z,100536.69
2023-05-01T13:16:48.829Z,100531.06
2023-05-01T13:20:02.169Z,100532.28
2023-05-01T13:23:10.796Z,100530.97
2023-05-01T13:26:13.110Z,100519.50
2023-05-01T13:29:15.839Z,100519.63
2023-05-01T13:32:18.180Z,100509.81
2023-05-01T13:35:24.951Z,100512.81
2023-05-01T13:38:27.376Z,100515.31
2023-05-01T13:41:30.585Z,100507.00
2023-05-01T13:44:32.930Z,100504.47
2023-05-01T13:47:35.494Z,100497.34
2023-05-01T13:50:40.460Z,100495.22
2023-05-01T13:53:42.916Z,100492.16
2023-05-01T13:56:45.354Z,100484.78
2023-05-01T13:59:47.889Z,100480.84
2023-05-01T14:02:50.370Z,100488.09
2023-05-01T14:05:52.731Z,100483.06
2023-05-01T14:08:57.792Z,100488.75
2023-05-01T14:12:01.012Z,100483.66
2023-05-01T14:15:05.152Z,100472.41
2023-05-01T14:18:07.658Z,100469.13
2023-05-01T14:21:10.052Z,100466.75
2023-05-01T14:24:12.533Z,100470.06
2023-05-01T14:27:15.189Z,100465.69
2023-05-01T14:30:27.750Z,100450.72
2023-05-01T14:33:30.106Z,100448.44
2023-05-01T14:36:32.915Z,100439.03
2023-05-01T14:39:35.342Z,100446.31
2023-05-01T14:42:39.556Z,100445.63
2023-05-01T14:45:43.099Z,100438.91
2023-05-01T14:48:45.519Z,100434.97
2023-05-01T14:51:48.452Z,100443.56
2023-05-01T14:54:52.887Z,100435.09
2023-05-01T14:57:58.156Z,100425.28
2023-05-01T15:01:02.155Z,100427.78
2023-05-01T15:04:07.406Z,100426.97
2023-05-01T15:07:09.893Z,100431.47
2023-05-01T15:10:12.432Z,100422.84
2023-05-01T15:13:14.728Z,100431.88
2023-05-01T15:16:17.218Z,100420.75
2023-05-01T15:19:19.705Z,100429.16
2023-05-01T15:22:21.993Z,100424.88
2023-05-01T15:25:24.352Z,100426.75
2023-05-01T15:28:26.885Z,100415.16
2023-05-01T15:31:30.688Z,100418.09
2023-05-01T15:34:33.272Z,100402.75
2023-05-01T15:37:35.799Z,100405.94
2023-05-01T15:40:38.729Z,100394.38
2023-05-01T15:43:41.148Z,100398.56
2023-05-01T15:46:43.569Z,100403.06
2023-05-01T15:49:46.069Z,100390.09
2023-05-01T15:52:48.401Z,100390.13
2023-05-01T15:55:51.695Z,100393.84
2023-05-01T15:58:54.063Z,100389.13
2023-05-01T16:01:56.538Z,100385.16
2023-05-01T16:04:59.571Z,100385.41
2023-05-01T16:08:02.087Z,100375.09
2023-05-01T16:11:04.437Z,100383.53
2023-05-01T16:14:10.129Z,100381.41
2023-05-01T16:17:12.644Z,100380.63
2023-05-01T16:20:17.244Z,100367.13
2023-05-01T16:23:19.571Z,100372.41
2023-05-01T16:26:23.185Z,100362.88
2023-05-01T16:29:26.013Z,100379.28
2023-05-01T16:32:28.377Z,100367.38
2023-05-01T16:35:31.817Z,100364.94
2023-05-01T16:38:34.954Z,100373.38
2023-05-01T16:41:52.700Z,100364.63
2023-05-01T16:44:56.598Z,100372.34
2023-05-01T16:47:59.077Z,100369.41
2023-05-01T16:51:05.346Z,100359.34
2023-05-01T16:54:07.685Z,100368.56
2023-05-01T16:57:10.194Z,100373.03
2023-05-01T17:00:14.076Z,100364.59
2023-05-01T17:03:16.827Z,100363.69
2023-05-01T17:06:19.245Z,100343.56
2023-05-01T17:09:21.751Z,100366.53
2023-05-01T17:12:31.477Z,100372.56
2023-05-01T17:15:33.961Z,100343.94
2023-05-01T17:18:36.619Z,100364.03
2023-05-01T17:21:38.949Z,100363.97
2023-05-01T17:24:41.772Z,100363.94
2023-05-01T17:27:44.121Z,100368.38
2023-05-01T17:30:46.425Z,100361.50
2023-05-01T17:33:48.812Z,100370.66
2023-05-01T17:36:51.175Z,100355.00
2023-05-01T17:39:53.730Z,100365.47
2023-05-01T17:42:56.118Z,100360.53
2023-05-01T17:45:58.614Z,100356.97
2023-05-01T17:49:01.191Z,100354.50
2023-05-01T17:52:03.718Z,100358.47
2023-05-01T17:55:06.760Z,100349.84
2023-05-01T17:58:09.196Z,100362.09
2023-05-01T18:01:11.599Z,100350.75
2023-05-01T18:04:14.322Z,100349.00
2023-05-01T18:07:16.986Z,100352.38
2023-05-01T18:10:19.274Z,100355.47
2023-05-01T18:13:27.782Z,100339.22
2023-05-01T18:16:30.218Z,100354.03
2023-05-01T18:19:32.868Z,100358.00
2023-05-01T18:22:35.202Z,100353.78
2023-05-01T18:25:37.741Z,100359.44
2023-05-01T18:28:40.125Z,100364.94
2023-05-01T18:31:42.486Z,100373.28
2023-05-01T18:34:46.004Z,100382.63
2023-05-01T18:37:48.521Z,100376.16
2023-05-01T18:40:50.872Z,100375.84
2023-05-01T18:43:56.329Z,100386.56
2023-05-01T18:47:00.201Z,100394.31
2023-05-01T18:50:02.713Z,100391.56
2023-05-01T18:53:05.112Z,100380.22
2023-05-01T18:56:09.538Z,100395.41
2023-05-01T18:59:11.894Z,100396.19
2023-05-01T19:02:14.241Z,100399.28
2023-05-01T19:05:16.656Z,100401.47
2023-05-01T19:08:19.036Z,100403.97
2023-05-01T19:11:21.720Z,100410.72
2023-05-01T19:14:24.078Z,100402.25
2023-05-01T19:17:27.819Z,100410.97
2023-05-01T19:20:31.402Z,100408.09
2023-05-01T19:23:35.584Z,100409.03
2023-05-01T19:26:37.899Z,100412.09
2023-05-01T19:29:40.515Z,100418.50
2023-05-01T19:32:42.882Z,100403.81
2023-05-01T19:35:45.618Z,100411.09
2023-05-01T19:38:47.942Z,100415.53
2023-05-01T19:41:50.469Z,100414.53
2023-05-01T19:44:52.847Z,100421.69
2023-05-01T19:47:55.382Z,100414.16
2023-05-01T19:50:57.957Z,100419.88
2023-05-01T19:54:01.258Z,100426.41
2023-05-01T19:57:03.646Z,100416.25
2023-05-01T20:00:07.175Z,100417.03
2023-05-01T20:03:13.170Z,100407.31
2023-05-01T20:06:15.689Z,100407.09
2023-05-01T20:09:18.017Z,100417.41
2023-05-01T20:12:20.406Z,100419.38
2023-05-01T20:15:22.997Z,100412.09
2023-05-01T20:18:25.370Z,100415.19
2023-05-01T20:21:27.731Z,100415.28
2023-05-01T20:24:30.176Z,100411.94
2023-05-01T20:27:32.534Z,100405.56
2023-05-01T20:30:38.581Z,100400.28
2023-05-01T20:33:41.456Z,100407.56
2023-05-01T20:36:43.813Z,100417.09
2023-05-01T20:39:46.275Z,100403.66
2023-05-01T20:42:48.592Z,100366.56
2023-05-01T20:45:51.044Z,100418.25
2023-05-01T20:48:54.300Z,100415.72
2023-05-01T20:51:59.431Z,100407.16
2023-05-01T20:55:01.733Z,100411.75
2023-05-01T20:58:04.095Z,100415.88
2023-05-01T21:01:06.782Z,100395.25
2023-05-01T21:04:09.262Z,100412.91
2023-05-01T21:07:11.858Z,100428.72
2023-05-01T21:10:16.504Z,100420.22
2023-05-01T21:13:21.027Z,100420.00
2023-05-01T21:16:23.500Z,100418.41
2023-05-01T21:19:25.912Z,100423.56
2023-05-01T21:22:28.318Z,100422.03
2023-05-01T21:25:32.024Z,100418.63
2023-05-01T21:28:34.450Z,100425.19
2023-05-01T21:31:37.009Z,100408.19
2023-05-01T21:34:39.357Z,100411.44
2023-05-01T21:37:43.312Z,100405.19
2023-05-01T21:40:46.271Z,100417.34
2023-05-01T21:43:48.588Z,100419.31
2023-05-01T21:46:51.129Z,100415.31
2023-05-01T21:49:57.078Z,100404.91
2023-05-01T21:52:59.630Z,100410.00
2023-05-01T21:56:01.917Z,100417.66
2023-05-01T21:59:05.377Z,100409.75
2023-05-01T22:02:08.657Z,100417.00
2023-05-01T22:05:11.747Z,100423.00
2023-05-01T22:08:14.129Z,100419.94
2023-05-01T22:11:16.497Z,100415.88
2023-05-01T22:14:18.942Z,100411.44
2023-05-01T22:17:24.475Z,100417.97
2023-05-01T22:20:26.866Z,100412.13
2023-05-01T22:23:29.227Z,100417.09
2023-05-01T22:26:31.587Z,100412.59
2023-05-01T22:29:34.286Z,100402.66
2023-05-01T22:32:36.815Z,100403.72
2023-05-01T22:35:39.129Z,100410.88
2023-05-01T22:38:41.529Z,100407.50
2023-05-01T22:41:43.857Z,100404.47
2023-05-01T22:44:46.215Z,100410.28
2023-05-01T22:47:48.601Z,100405.91
2023-05-01T22:50:50.989Z,100403.72
2023-05-01T22:53:53.280Z,100410.56
2023-05-01T22:56:56.335Z,100395.75
2023-05-01T22:59:58.953Z,100409.97
2023-05-01T23:03:01.933Z,100400.91
2023-05-01T23:06:04.534Z,100394.53
2023-05-01T23:09:07.275Z,100397.28
2023-05-01T23:12:17.799Z,100396.63
2023-05-01T23:15:25.183Z,100385.91
2023-05-01T23:18:31.846Z,100398.75
2023-05-01T23:21:34.147Z,100397.34
2023-05-01T23:24:56.786Z,100401.66
2023-05-01T23:27:59.187Z,100394.56
2023-05-01T23:31:02.417Z,100379.09
2023-05-01T23:34:04.777Z,100386.78
2023-05-01T23:37:07.105Z,100377.00
2023-05-01T23:40:09.686Z,100379.56
2023-05-01T23:43:12.650Z,100373.97
2023-05-01T23:46:15.620Z,100366.13
2023-05-01T23:49:18.024Z,100383.31
2023-05-01T23:52:20.615Z,100353.09
2023-05-01T23:55:22.952Z,100367.38
2023-05-01T23:58:25.369Z,100377.06
